.
WxDataArchive / Data Records for 2006-03-11
2006-03-10 March 2006 2006-03-12

Data Records for Saturday, 11 March 2006

Time	Temp	Chill	HIndex	Humid	Dewpt	 Wind 	HiWind	WindDir	Rain 	Barom 
-----	----	-----	------	-----	-----	------	------	-------	-----	----- 
00:00	36.6	36.6	36.6	92	34.5	0	0	---	0.00	30.044 
00:05	36.3	36.3	36.3	92	34.2	0	0	---	0.00	30.044 
00:10	36.0	36.0	36.0	92	33.9	0	0	---	0.00	30.044 
00:15	35.9	35.9	35.9	92	33.8	0	1	112	0.00	30.039 
00:20	35.6	35.6	35.6	93	33.8	0	0	---	0.00	30.039 
00:25	35.6	35.6	35.6	93	33.8	0	0	---	0.00	30.039 
00:30	35.3	35.3	35.3	93	33.5	0	0	---	0.00	30.030 
00:35	35.2	35.2	35.2	93	33.4	0	0	---	0.00	30.030 
00:40	35.0	35.0	35.0	93	33.2	0	0	---	0.00	30.030 
00:45	34.7	34.7	34.7	93	32.9	0	0	---	0.00	30.042 
00:50	34.7	34.7	34.7	93	32.9	0	0	---	0.00	30.042 
00:55	34.7	34.7	34.7	93	32.9	0	0	---	0.00	30.042 
01:00	34.9	34.9	34.9	93	33.1	0	0	---	0.00	30.046 
01:05	34.9	34.9	34.9	93	33.1	0	0	---	0.00	30.046 
01:10	35.0	35.0	35.0	93	33.2	0	0	---	0.00	30.046 
01:15	35.0	35.0	35.0	93	33.2	0	0	---	0.00	30.053 
01:20	35.0	35.0	35.0	93	33.2	0	0	---	0.00	30.053 
01:25	35.0	35.0	35.0	93	33.2	0	0	---	0.00	30.053 
01:30	35.2	35.2	35.2	94	33.6	0	0	---	0.00	30.056 
01:35	35.2	35.2	35.2	94	33.6	0	0	---	0.00	30.056 
01:40	35.3	35.3	35.3	94	33.7	0	0	---	0.00	30.056 
01:45	35.2	35.2	35.2	94	33.6	0	0	---	0.00	30.062 
01:50	35.2	35.2	35.2	94	33.6	0	0	---	0.00	30.062 
01:55	35.3	35.3	35.3	94	33.7	0	0	---	0.00	30.062 
02:00	35.5	35.5	35.5	94	33.9	0	0	---	0.00	30.076 
02:05	35.8	35.8	35.8	94	34.2	0	0	---	0.00	30.076 
02:10	35.9	35.9	35.9	94	34.3	0	0	---	0.00	30.076 
02:15	35.9	35.9	35.9	94	34.3	0	0	---	0.00	30.075 
02:20	36.0	36.0	36.0	94	34.4	0	0	---	0.00	30.075 
02:25	36.0	36.0	36.0	94	34.4	0	0	---	0.00	30.075 
02:30	36.0	36.0	36.0	94	34.4	0	0	---	0.00	30.072 
02:35	36.2	36.2	36.2	94	34.6	0	0	---	0.00	30.072 
02:40	36.5	36.5	36.5	95	35.2	0	1	112	0.00	30.072 
02:45	36.9	36.9	36.9	95	35.6	0	1	112	0.00	30.066 
02:50	37.2	37.2	37.2	95	35.9	0	1	112	0.00	30.066 
02:55	37.2	37.2	37.2	95	35.9	0	1	112	0.00	30.066 
03:00	37.0	37.0	37.0	95	35.7	0	1	112	0.00	30.064 
03:05	37.2	37.2	37.2	95	35.9	0	1	112	0.00	30.064 
03:10	37.3	37.3	37.3	95	36.0	0	2	112	0.00	30.064 
03:15	37.5	37.5	37.5	95	36.2	0	1	112	0.00	30.057 
03:20	37.3	37.3	37.3	95	36.0	0	1	112	0.00	30.057 
03:25	37.3	37.3	37.3	95	36.0	0	1	112	0.00	30.057 
03:30	37.2	37.2	37.2	95	35.9	0	0	---	0.00	30.058 
03:35	37.0	37.0	37.0	95	35.7	0	1	112	0.00	30.058 
03:40	36.9	36.9	36.9	95	35.6	0	1	112	0.00	30.058 
03:45	36.8	36.8	36.8	95	35.5	0	2	112	0.00	30.053 
03:50	36.8	36.8	36.8	95	35.5	0	2	112	0.00	30.053 
03:55	36.9	36.9	36.9	95	35.6	1	2	112	0.00	30.053 
04:00	36.9	36.9	36.9	95	35.6	1	2	112	0.00	30.058 
04:05	36.9	36.9	36.9	95	35.6	1	3	112	0.00	30.058 
04:10	37.0	37.0	37.0	95	35.7	1	3	90	0.00	30.058 
04:15	37.2	37.2	37.2	95	35.9	2	4	90	0.00	30.059 
04:20	37.3	37.3	37.3	95	36.0	2	3	90	0.00	30.059 
04:25	37.3	37.3	37.3	95	36.0	2	3	90	0.00	30.059 
04:30	37.5	37.5	37.5	95	36.2	1	5	90	0.00	30.057 
04:35	37.5	37.5	37.5	95	36.2	1	3	112	0.00	30.057 
04:40	37.5	37.5	37.5	95	36.2	1	3	112	0.00	30.057 
04:45	37.5	37.5	37.5	95	36.2	1	3	90	0.00	30.057 
04:50	37.6	37.6	37.6	95	36.3	1	2	90	0.00	30.057 
04:55	37.8	37.8	37.8	95	36.5	2	4	112	0.00	30.057 
05:00	37.9	37.9	37.9	95	36.6	1	3	90	0.00	30.058 
05:05	37.9	37.9	37.9	95	36.6	1	2	90	0.00	30.058 
05:10	38.0	38.0	38.0	95	36.7	1	2	112	0.00	30.058 
05:15	38.2	38.2	38.2	95	36.9	0	2	112	0.00	30.059 
05:20	38.2	38.2	38.2	95	36.9	1	3	112	0.00	30.059 
05:25	38.3	38.3	38.3	95	37.0	1	2	112	0.00	30.059 
05:30	38.3	38.3	38.3	96	37.3	2	4	112	0.00	30.056 
05:35	38.5	38.5	38.5	96	37.5	2	3	90	0.00	30.056 
05:40	38.3	38.3	38.3	96	37.3	2	4	90	0.00	30.056 
05:45	38.3	38.3	38.3	96	37.3	2	4	90	0.00	30.048 
05:50	38.3	38.3	38.3	95	37.0	2	5	112	0.00	30.048 
05:55	38.3	38.3	38.3	96	37.3	3	5	90	0.00	30.048 
06:00	38.3	38.3	38.3	96	37.3	3	5	90	0.00	30.038 
06:05	38.2	38.2	38.2	96	37.2	3	5	90	0.00	30.038 
06:10	38.0	38.0	38.0	96	37.0	3	5	90	0.00	30.038 
06:15	38.0	38.0	38.0	96	37.0	1	3	112	0.00	30.041 
06:20	38.0	38.0	38.0	96	37.0	1	5	112	0.00	30.041 
06:25	38.0	38.0	38.0	96	37.0	2	4	112	0.00	30.041 
06:30	37.9	37.9	37.9	96	36.9	2	4	112	0.00	30.042 
06:35	37.9	37.9	37.9	96	36.9	2	4	112	0.00	30.042 
06:40	37.8	37.8	37.8	96	36.8	2	4	112	0.00	30.042 
06:45	37.8	37.8	37.8	96	36.8	2	4	90	0.00	30.044 
06:50	37.9	37.9	37.9	96	36.9	3	4	90	0.00	30.044 
06:55	37.9	37.9	37.9	96	36.9	3	5	90	0.00	30.044 
07:00	37.9	37.9	37.9	96	36.9	2	4	90	0.00	30.042 
07:05	38.2	38.2	38.2	96	37.2	2	5	90	0.00	30.042 
07:10	38.2	38.2	38.2	96	37.2	2	6	112	0.00	30.042 
07:15	38.5	38.5	38.5	96	37.5	3	6	90	0.00	30.045 
07:20	38.6	38.6	38.6	96	37.6	2	4	90	0.00	30.045 
07:25	38.8	38.8	38.8	96	37.8	3	7	112	0.00	30.045 
07:30	38.8	38.8	38.8	96	37.8	3	7	112	0.00	30.056 
07:35	38.9	38.9	38.9	96	37.9	3	5	90	0.00	30.056 
07:40	38.9	38.9	38.9	96	37.9	3	7	112	0.00	30.056 
07:45	38.9	36.0	38.9	96	37.9	4	10	90	0.00	30.061 
07:50	39.1	36.3	39.1	96	38.1	4	9	112	0.00	30.061 
07:55	39.2	36.4	39.2	96	38.2	4	7	90	0.00	30.061 
08:00	39.5	36.7	39.5	96	38.5	4	9	90	0.00	30.063 
08:05	39.6	36.9	39.6	96	38.6	4	7	112	0.00	30.063 
08:10	39.9	37.2	39.9	96	38.9	4	7	112	0.00	30.063 
08:15	40.2	40.2	40.2	96	39.2	3	7	112	0.00	30.075 
08:20	40.5	40.5	40.5	96	39.5	3	6	112	0.00	30.075 
08:25	40.6	38.0	40.6	96	39.5	4	9	112	0.00	30.075 
08:30	40.6	40.6	40.6	96	39.5	3	9	112	0.00	30.087 
08:35	40.6	38.0	40.6	96	39.5	4	7	112	0.00	30.087 
08:40	40.8	38.2	40.8	95	39.5	4	9	112	0.00	30.087 
08:45	40.8	38.2	40.8	95	39.5	4	9	112	0.00	30.082 
08:50	40.9	38.4	40.9	95	39.6	4	9	112	0.00	30.082 
08:55	41.1	41.1	41.1	95	39.8	3	6	112	0.00	30.082 
09:00	41.2	41.2	41.2	94	39.6	3	5	112	0.00	30.083 
09:05	41.3	38.8	41.3	94	39.7	4	7	112	0.00	30.083 
09:10	41.5	39.1	41.5	93	39.6	4	8	112	0.00	30.083 
09:15	41.6	39.2	41.6	93	39.7	4	9	90	0.00	30.085 
09:20	41.8	38.6	41.8	93	39.9	5	11	112	0.00	30.085 
09:25	41.9	38.7	41.9	92	39.7	5	9	112	0.00	30.085 
09:30	42.2	39.9	42.2	92	40.0	4	11	90	0.00	30.071 
09:35	42.6	38.9	42.6	92	40.4	6	12	112	0.00	30.071 
09:40	42.9	40.7	42.9	93	41.0	4	9	112	0.00	30.071 
09:45	43.2	43.2	43.2	91	40.8	3	7	112	0.00	30.064 
09:50	43.6	41.5	43.6	91	41.1	4	10	112	0.00	30.064 
09:55	44.1	42.1	44.1	91	41.6	4	9	112	0.00	30.064 
10:00	44.5	41.8	44.5	90	41.8	5	11	112	0.00	30.043 
10:05	44.9	42.2	44.9	89	41.9	5	10	112	0.00	30.043 
10:10	45.2	42.6	45.2	88	41.9	5	11	90	0.00	30.043 
10:15	45.7	43.9	45.7	88	42.4	4	11	112	0.00	30.041 
10:20	46.2	44.5	46.2	87	42.5	4	10	112	0.00	30.041 
10:25	46.8	46.8	46.8	86	42.8	3	7	90	0.00	30.041 
10:30	47.4	47.4	47.4	84	42.8	3	9	112	0.00	30.041 
10:35	48.0	48.0	48.0	82	42.8	3	11	90	0.00	30.041 
10:40	48.2	46.1	48.2	81	42.6	5	14	112	0.00	30.041 
10:45	48.3	46.2	48.3	81	42.7	5	12	112	0.00	29.992 
10:50	48.6	46.0	48.6	82	43.4	6	11	112	0.00	29.992 
10:55	49.1	46.6	49.1	81	43.5	6	11	112	0.00	29.992 
11:00	49.5	48.3	49.5	80	43.6	4	12	90	0.00	29.975 
11:05	50.1	50.1	50.1	79	43.8	3	6	112	0.00	29.975 
11:10	51.0	51.0	51.0	78	44.4	5	12	90	0.00	29.975 
11:15	51.6	51.6	51.6	77	44.6	4	7	90	0.00	29.991 
11:20	52.3	52.3	52.3	75	44.6	5	12	90	0.00	29.991 
11:25	53.3	53.3	53.3	74	45.2	3	9	90	0.00	29.991 
11:30	54.1	54.1	54.1	71	44.9	4	10	90	0.00	30.006 
11:35	54.4	54.4	54.4	71	45.2	3	7	112	0.00	30.006 
11:40	54.5	54.5	54.5	70	44.9	3	9	112	0.00	30.006 
11:45	54.8	54.8	54.8	70	45.2	3	7	90	0.00	30.015 
11:50	54.8	54.8	54.8	68	44.4	4	8	90	0.00	30.015 
11:55	54.7	54.7	54.7	69	44.7	3	8	112	0.00	30.015 
12:00	54.5	54.5	54.5	71	45.3	3	5	112	0.00	30.022 
12:05	54.2	54.2	54.2	69	44.3	3	9	90	0.00	30.022 
12:10	54.1	54.1	54.1	70	44.5	3	10	112	0.00	30.022 
12:15	53.9	53.9	53.9	71	44.7	2	5	112	0.00	30.033 
12:20	53.9	53.9	53.9	72	45.1	2	4	112	0.00	30.033 
12:25	53.9	53.9	53.9	72	45.1	2	5	112	0.00	30.033 
12:30	54.1	54.1	54.1	72	45.3	2	5	112	0.00	30.026 
12:35	54.2	54.2	54.2	72	45.4	2	5	90	0.00	30.026 
12:40	54.5	54.5	54.5	72	45.7	2	4	112	0.00	30.026 
12:45	54.8	54.8	54.8	71	45.6	3	6	112	0.00	30.033 
12:50	55.1	55.1	55.1	70	45.5	3	9	90	0.00	30.033 
12:55	55.4	55.4	55.4	70	45.8	3	9	112	0.00	30.033 
13:00	55.9	55.9	55.9	69	45.9	3	8	90	0.00	30.035 
13:05	56.5	56.5	56.5	68	46.1	4	8	112	0.00	30.035 
13:10	57.2	57.2	57.2	66	45.9	5	13	90	0.00	30.035 
13:15	57.6	57.6	57.6	64	45.5	5	11	90	0.00	30.031 
13:20	58.0	58.0	58.0	65	46.3	3	7	90	0.00	30.031 
13:25	58.6	58.6	58.6	65	46.9	5	11	90	0.00	30.031 
13:30	59.2	59.2	59.2	64	47.0	4	9	90	0.00	30.024 
13:35	58.7	58.7	58.7	63	46.1	6	17	112	0.00	30.024 
13:40	58.1	58.1	58.1	64	46.0	7	15	112	0.00	30.024 
13:45	58.1	58.1	58.1	65	46.4	5	10	90	0.00	30.019 
13:50	58.1	58.1	58.1	66	46.8	4	10	112	0.00	30.019 
13:55	58.0	58.0	58.0	67	47.1	5	11	90	0.00	30.019 
14:00	58.1	58.1	58.1	67	47.2	5	12	90	0.00	30.017 
14:05	58.4	58.4	58.4	66	47.1	6	11	90	0.00	30.017 
14:10	58.6	58.6	58.6	66	47.3	6	13	90	0.00	30.017 
14:15	58.6	58.6	58.6	65	46.9	6	15	90	0.00	30.014 
14:20	58.7	58.7	58.7	66	47.4	5	13	90	0.00	30.014 
14:25	58.7	58.7	58.7	66	47.4	6	12	90	0.00	30.014 
14:30	58.7	58.7	58.7	66	47.4	5	11	90	0.00	30.000 
14:35	59.0	59.0	59.0	66	47.7	6	16	90	0.00	30.000 
14:40	59.0	59.0	59.0	66	47.7	6	11	90	0.00	30.000 
14:45	58.7	58.7	58.7	68	48.2	6	13	90	0.00	30.005 
14:50	58.3	58.3	58.3	68	47.8	5	11	90	0.00	30.005 
14:55	58.3	58.3	58.3	68	47.8	6	11	90	0.00	30.005 
15:00	58.0	58.0	58.0	69	47.9	7	16	90	0.00	30.005 
15:05	57.8	57.8	57.8	69	47.7	6	14	90	0.00	30.005 
15:10	57.8	57.8	57.8	69	47.7	6	12	90	0.00	30.005 
15:15	58.1	58.1	58.1	69	48.0	5	11	90	0.00	30.002 
15:20	58.3	58.3	58.3	70	48.6	5	10	90	0.00	30.002 
15:25	58.1	58.1	58.1	70	48.4	4	9	90	0.00	30.002 
15:30	58.1	58.1	58.1	69	48.0	4	11	90	0.00	29.999 
15:35	58.3	58.3	58.3	68	47.8	6	13	90	0.00	29.999 
15:40	58.4	58.4	58.4	68	47.9	6	11	90	0.00	29.999 
15:45	58.9	58.9	58.9	68	48.4	6	15	90	0.00	29.985 
15:50	59.0	59.0	59.0	67	48.1	6	11	90	0.00	29.985 
15:55	59.0	59.0	59.0	68	48.5	5	13	90	0.00	29.985 
16:00	58.9	58.9	58.9	68	48.4	5	12	90	0.00	29.990 
16:05	59.0	59.0	59.0	68	48.5	4	10	90	0.00	29.990 
16:10	58.9	58.9	58.9	68	48.4	5	10	90	0.00	29.990 
16:15	58.9	58.9	58.9	69	48.7	4	10	90	0.00	29.983 
16:20	58.7	58.7	58.7	69	48.6	5	10	90	0.00	29.983 
16:25	58.9	58.9	58.9	69	48.7	5	14	90	0.00	29.983 
16:30	59.2	59.2	59.2	68	48.6	4	12	90	0.00	29.978 
16:35	59.2	59.2	59.2	68	48.6	4	10	90	0.00	29.978 
16:40	59.0	59.0	59.0	68	48.5	4	9	90	0.00	29.978 
16:45	58.9	58.9	58.9	69	48.7	4	9	112	0.00	29.982 
16:50	58.9	58.9	58.9	69	48.7	4	9	90	0.00	29.982 
16:55	58.7	58.7	58.7	70	48.9	4	8	90	0.00	29.982 
17:00	58.7	58.7	58.7	70	48.9	3	7	90	0.00	29.980 
17:05	58.6	58.6	58.6	70	48.8	3	7	90	0.00	29.980 
17:10	58.4	58.4	58.4	70	48.7	3	9	112	0.00	29.980 
17:15	58.4	58.4	58.4	71	49.0	4	6	90	0.00	29.980 
17:20	58.6	58.6	58.6	71	49.2	4	9	90	0.00	29.980 
17:25	58.7	58.7	58.7	70	48.9	3	7	90	0.00	29.980 
17:30	58.7	58.7	58.7	70	48.9	3	7	112	0.00	29.975 
17:35	58.7	58.7	58.7	71	49.3	2	6	90	0.00	29.975 
17:40	58.7	58.7	58.7	71	49.3	3	5	90	0.00	29.975 
17:45	58.6	58.6	58.6	71	49.2	4	9	90	0.00	29.977 
17:50	58.4	58.4	58.4	71	49.0	3	9	90	0.00	29.977 
17:55	58.4	58.4	58.4	72	49.4	3	7	90	0.00	29.977 
18:00	58.3	58.3	58.3	72	49.3	3	6	112	0.00	29.969 
18:05	58.1	58.1	58.1	73	49.5	2	5	112	0.00	29.969 
18:10	58.0	58.0	58.0	73	49.4	2	8	112	0.00	29.969 
18:15	58.0	58.0	58.0	73	49.4	2	7	90	0.00	29.966 
18:20	58.0	58.0	58.0	74	49.8	2	5	112	0.00	29.966 
18:25	57.8	57.8	57.8	74	49.6	3	6	90	0.00	29.966 
18:30	57.8	57.8	57.8	74	49.6	2	4	90	0.00	29.965 
18:35	57.6	57.6	57.6	75	49.7	2	4	112	0.00	29.965 
18:40	57.6	57.6	57.6	76	50.1	2	4	112	0.00	29.965 
18:45	57.5	57.5	57.5	76	50.0	2	6	112	0.00	29.961 
18:50	57.5	57.5	57.5	76	50.0	3	7	90	0.00	29.961 
18:55	57.3	57.3	57.3	76	49.8	2	5	90	0.00	29.961 
19:00	57.2	57.2	57.2	76	49.7	2	6	90	0.00	29.955 
19:05	57.0	57.0	57.0	77	49.9	3	6	90	0.00	29.955 
19:10	57.0	57.0	57.0	77	49.9	2	6	112	0.00	29.955 
19:15	56.9	56.9	56.9	77	49.8	1	4	135	0.00	29.952 
19:20	56.7	56.7	56.7	78	49.9	2	5	112	0.00	29.952 
19:25	56.6	56.6	56.6	78	49.8	2	5	90	0.00	29.952 
19:30	56.5	56.5	56.5	78	49.7	2	3	112	0.00	29.949 
19:35	56.3	56.3	56.3	79	49.9	2	5	90	0.00	29.949 
19:40	56.3	56.3	56.3	79	49.9	2	3	112	0.00	29.949 
19:45	56.2	56.2	56.2	79	49.8	2	6	112	0.00	29.948 
19:50	56.0	56.0	56.0	80	49.9	2	4	112	0.00	29.948 
19:55	55.9	55.9	55.9	80	49.8	2	4	112	0.00	29.948 
20:00	55.9	55.9	55.9	81	50.2	2	4	90	0.00	29.948 
20:05	55.7	55.7	55.7	81	50.0	2	5	90	0.00	29.948 
20:10	55.7	55.7	55.7	81	50.0	3	6	90	0.00	29.948 
20:15	55.7	55.7	55.7	81	50.0	3	7	112	0.00	29.948 
20:20	55.7	55.7	55.7	81	50.0	3	6	112	0.00	29.948 
20:25	55.7	55.7	55.7	81	50.0	2	5	112	0.00	29.948 
20:30	55.6	55.6	55.6	82	50.2	2	6	112	0.00	29.948 
20:35	55.4	55.4	55.4	82	50.0	2	4	112	0.00	29.948 
20:40	55.4	55.4	55.4	82	50.0	2	6	90	0.00	29.948 
20:45	55.4	55.4	55.4	82	50.0	2	5	112	0.00	29.952 
20:50	55.4	55.4	55.4	83	50.3	2	4	112	0.00	29.952 
20:55	55.3	55.3	55.3	83	50.2	2	8	112	0.00	29.952 
21:00	55.3	55.3	55.3	84	50.5	1	4	112	0.00	29.958 
21:05	55.3	55.3	55.3	84	50.5	2	6	90	0.00	29.958 
21:10	55.3	55.3	55.3	84	50.5	2	5	90	0.00	29.958 
21:15	55.3	55.3	55.3	84	50.5	2	5	112	0.00	29.953 
21:20	55.1	55.1	55.1	84	50.4	2	6	112	0.00	29.953 
21:25	55.1	55.1	55.1	84	50.4	3	5	112	0.00	29.953 
21:30	55.0	55.0	55.0	85	50.6	3	9	90	0.00	29.954 
21:35	55.0	55.0	55.0	85	50.6	3	7	90	0.00	29.954 
21:40	54.8	54.8	54.8	86	50.7	2	5	112	0.00	29.954 
21:45	54.8	54.8	54.8	86	50.7	2	5	90	0.00	29.944 
21:50	54.7	54.7	54.7	87	50.9	1	4	90	0.00	29.944 
21:55	54.7	54.7	54.7	87	50.9	1	3	112	0.00	29.944 
22:00	54.5	54.5	54.5	87	50.7	2	5	112	0.00	29.932 
22:05	54.4	54.4	54.4	87	50.6	1	3	112	0.00	29.932 
22:10	54.2	54.2	54.2	88	50.7	2	5	112	0.00	29.932 
22:15	54.2	54.2	54.2	88	50.7	2	5	135	0.00	29.918 
22:20	54.1	54.1	54.1	89	50.9	2	4	135	0.00	29.918 
22:25	54.1	54.1	54.1	89	50.9	2	5	90	0.00	29.918 
22:30	54.1	54.1	54.1	89	50.9	1	4	112	0.00	29.908 
22:35	53.9	53.9	53.9	89	50.7	1	3	90	0.00	29.908 
22:40	53.9	53.9	53.9	90	51.0	1	5	112	0.00	29.908 
22:45	53.9	53.9	53.9	90	51.0	2	4	112	0.00	29.922 
22:50	53.8	53.8	53.8	90	50.9	1	4	112	0.00	29.922 
22:55	53.8	53.8	53.8	91	51.2	2	7	112	0.00	29.922 
23:00	53.8	53.8	53.8	91	51.2	2	3	135	0.00	29.916 
23:05	53.8	53.8	53.8	91	51.2	1	4	112	0.00	29.916 
23:10	53.8	53.8	53.8	91	51.2	2	5	90	0.00	29.916 
23:15	53.8	53.8	53.8	91	51.2	1	4	90	0.00	29.918 
23:20	53.8	53.8	53.8	91	51.2	2	4	112	0.00	29.918 
23:25	53.8	53.8	53.8	92	51.5	2	4	112	0.00	29.918 
23:30	53.8	53.8	53.8	92	51.5	2	5	112	0.00	29.911 
23:35	53.9	53.9	53.9	92	51.6	2	5	90	0.00	29.911 
23:40	53.9	53.9	53.9	92	51.6	2	3	90	0.02	29.911 
23:45	53.9	53.9	53.9	92	51.6	2	4	90	0.02	29.896 
23:50	54.1	54.1	54.1	92	51.8	1	3	112	0.00	29.896 
23:55	54.1	54.1	54.1	93	52.1	0	2	135	0.01	29.896 

CoCoRaHS
IN-AL-39
A2 Web Hosting
Creative Commons License
GoDaddy
Look for:

loaded 2017-10-19 19:59:27 • last modified 2010-11-18 10:43:29
Privacy PolicyDisclaimer
• wx.awcolley.com is powered by PmWiki v.2002016 •
• all content (unless otherwise noted) © 2017 A W Colley